LATI

Details ICAO LATI (TIA)
Name Tirana Rinas
Region Albania
Timezone Europe/Tirane (UTC+1.0)
Plans Departing 172
Arriving 175
Stats Elevation 126 ft / 38 m (AMSL)
Location 41.414732° 19.720569°
Runways 1
Magnetic Variation 4.233° E
Sunrise 2017-12-16 06:02:18 UTC / 2017-12-16 07:02:18 Local
Sunset 2017-12-16 15:13:55 UTC / 2017-12-16 16:13:55 Local
Advertisement - Login to hide

Runways

ID Width Length Bearing (true) Bearing (mag) Surface Threshold Offset Overrun Length
18 148 ft / 45 m 8,984 ft / 2,738 m 174.31° 170.08° Asphalt 500 ft / 152 m 0 ft / 0 m
36 148 ft / 45 m 8,984 ft / 2,738 m 354.31° 350.08° Asphalt 500 ft / 152 m 0 ft / 0 m

Map

Weather


0- 5 10 15 20 25 30 35+ Temperature / ° C

Clouds and Precipitation
Forecast for 2017-12-17 00:00 UTC. Updated 2 hours ago

Ground ~20,000 ft ~40,000 ft Winds

METAR

LATI 162050Z 20005KT 9999 SCT060 BKN074 10/08 Q1009 NOSIG

TAF

TAF LATI 161700Z 1618/1718 18006KT 8000 -RA SCT020 BKN040 OVC060 TEMPO 1706/1716 5000 SHRA SCT015CB

Frequencies

Tower 123.50 MHz TWR
Approach 133.15 MHz APP
Warning: Do not use this data for real-world aviation or navigation. No guarantee of current accuracy is given.